sensor_id;sensor_type;location;lat;lon;timestamp;temperature;humidity
35559;DHT22;21661;50.794;-1.066;2023-12-04T00:01:16;8.70;99.90
35559;DHT22;21661;50.794;-1.066;2023-12-04T00:03:42;8.60;99.90
35559;DHT22;21661;50.794;-1.066;2023-12-04T00:06:10;8.70;99.90
35559;DHT22;21661;50.794;-1.066;2023-12-04T00:08:36;8.70;99.90
35559;DHT22;21661;50.794;-1.066;2023-12-04T00:11:03;8.60;99.90
35559;DHT22;21661;50.794;-1.066;2023-12-04T00:13:29;8.60;99.90
35559;DHT22;21661;50.794;-1.066;2023-12-04T00:15:55;8.60;99.90
35559;DHT22;21661;50.794;-1.066;2023-12-04T00:18:20;8.50;99.90
35559;DHT22;21661;50.794;-1.066;2023-12-04T00:20:46;8.50;99.90
35559;DHT22;21661;50.794;-1.066;2023-12-04T00:23:11;8.50;99.90
35559;DHT22;21661;50.794;-1.066;2023-12-04T00:25:37;8.50;99.90
35559;DHT22;21661;50.794;-1.066;2023-12-04T00:28:03;8.40;99.90
35559;DHT22;21661;50.794;-1.066;2023-12-04T00:30:28;8.50;99.90
35559;DHT22;21661;50.794;-1.066;2023-12-04T00:32:54;8.50;99.90
35559;DHT22;21661;50.794;-1.066;2023-12-04T00:35:19;8.60;99.90
35559;DHT22;21661;50.794;-1.066;2023-12-04T00:37:45;8.60;99.90
35559;DHT22;21661;50.794;-1.066;2023-12-04T00:40:11;8.60;99.90
35559;DHT22;21661;50.794;-1.066;2023-12-04T00:42:36;8.60;99.90
35559;DHT22;21661;50.794;-1.066;2023-12-04T00:45:03;8.60;99.90
35559;DHT22;21661;50.794;-1.066;2023-12-04T00:47:29;8.60;99.90
35559;DHT22;21661;50.794;-1.066;2023-12-04T00:49:54;8.60;99.90
35559;DHT22;21661;50.794;-1.066;2023-12-04T00:52:20;8.60;99.90
35559;DHT22;21661;50.794;-1.066;2023-12-04T00:54:46;8.60;99.90
35559;DHT22;21661;50.794;-1.066;2023-12-04T00:57:11;8.50;99.90
35559;DHT22;21661;50.794;-1.066;2023-12-04T00:59:37;8.50;99.90
35559;DHT22;21661;50.794;-1.066;2023-12-04T01:02:02;8.60;99.90
35559;DHT22;21661;50.794;-1.066;2023-12-04T01:04:28;8.60;99.90
35559;DHT22;21661;50.794;-1.066;2023-12-04T01:06:54;8.60;99.90
35559;DHT22;21661;50.794;-1.066;2023-12-04T01:09:19;8.60;99.90
35559;DHT22;21661;50.794;-1.066;2023-12-04T01:11:53;8.50;99.90
35559;DHT22;21661;50.794;-1.066;2023-12-04T01:14:20;8.50;99.90
35559;DHT22;21661;50.794;-1.066;2023-12-04T01:16:45;8.60;99.90
35559;DHT22;21661;50.794;-1.066;2023-12-04T01:19:11;8.60;99.90
35559;DHT22;21661;50.794;-1.066;2023-12-04T01:21:37;8.60;99.90
35559;DHT22;21661;50.794;-1.066;2023-12-04T01:24:03;8.60;99.90
35559;DHT22;21661;50.794;-1.066;2023-12-04T01:26:28;8.50;99.90
35559;DHT22;21661;50.794;-1.066;2023-12-04T01:28:55;8.50;99.90
35559;DHT22;21661;50.794;-1.066;2023-12-04T01:31:21;8.50;99.90
35559;DHT22;21661;50.794;-1.066;2023-12-04T01:33:46;8.50;99.90
35559;DHT22;21661;50.794;-1.066;2023-12-04T01:36:12;8.50;99.90
35559;DHT22;21661;50.794;-1.066;2023-12-04T01:38:38;8.50;99.90
35559;DHT22;21661;50.794;-1.066;2023-12-04T01:41:04;8.50;99.90
35559;DHT22;21661;50.794;-1.066;2023-12-04T01:43:30;8.50;99.90
35559;DHT22;21661;50.794;-1.066;2023-12-04T01:45:56;8.50;99.90
35559;DHT22;21661;50.794;-1.066;2023-12-04T01:48:23;8.50;99.90
35559;DHT22;21661;50.794;-1.066;2023-12-04T01:50:50;8.50;99.90
35559;DHT22;21661;50.794;-1.066;2023-12-04T01:53:16;8.50;99.90
35559;DHT22;21661;50.794;-1.066;2023-12-04T01:55:42;8.50;99.90
35559;DHT22;21661;50.794;-1.066;2023-12-04T01:58:08;8.50;99.90
35559;DHT22;21661;50.794;-1.066;2023-12-04T02:00:34;8.50;99.90
35559;DHT22;21661;50.794;-1.066;2023-12-04T02:03:00;8.50;99.90
35559;DHT22;21661;50.794;-1.066;2023-12-04T02:05:27;8.40;99.90
35559;DHT22;21661;50.794;-1.066;2023-12-04T02:07:55;8.40;99.90
35559;DHT22;21661;50.794;-1.066;2023-12-04T02:10:21;8.40;99.90
35559;DHT22;21661;50.794;-1.066;2023-12-04T02:12:48;8.40;99.90
35559;DHT22;21661;50.794;-1.066;2023-12-04T02:15:14;8.50;99.90
35559;DHT22;21661;50.794;-1.066;2023-12-04T02:17:39;8.50;99.90
35559;DHT22;21661;50.794;-1.066;2023-12-04T02:20:06;8.50;99.90
35559;DHT22;21661;50.794;-1.066;2023-12-04T02:22:33;8.40;99.90
35559;DHT22;21661;50.794;-1.066;2023-12-04T02:24:59;8.50;99.90
35559;DHT22;21661;50.794;-1.066;2023-12-04T02:27:28;8.50;99.90
35559;DHT22;21661;50.794;-1.066;2023-12-04T02:29:59;8.50;99.90
35559;DHT22;21661;50.794;-1.066;2023-12-04T02:32:28;8.50;99.90
35559;DHT22;21661;50.794;-1.066;2023-12-04T02:34:54;8.50;99.90
35559;DHT22;21661;50.794;-1.066;2023-12-04T02:37:21;8.50;99.90
35559;DHT22;21661;50.794;-1.066;2023-12-04T02:39:48;8.50;99.90
35559;DHT22;21661;50.794;-1.066;2023-12-04T02:42:15;8.50;99.90
35559;DHT22;21661;50.794;-1.066;2023-12-04T02:44:42;8.50;99.90
35559;DHT22;21661;50.794;-1.066;2023-12-04T02:47:08;8.60;99.90
35559;DHT22;21661;50.794;-1.066;2023-12-04T02:49:33;8.60;99.90
35559;DHT22;21661;50.794;-1.066;2023-12-04T02:51:59;8.60;99.90
35559;DHT22;21661;50.794;-1.066;2023-12-04T02:54:25;8.60;99.90
35559;DHT22;21661;50.794;-1.066;2023-12-04T02:56:50;8.60;99.90
35559;DHT22;21661;50.794;-1.066;2023-12-04T02:59:16;8.60;99.90
35559;DHT22;21661;50.794;-1.066;2023-12-04T03:01:41;8.60;99.90
35559;DHT22;21661;50.794;-1.066;2023-12-04T03:04:07;8.60;99.90
35559;DHT22;21661;50.794;-1.066;2023-12-04T03:06:33;8.60;99.90
35559;DHT22;21661;50.794;-1.066;2023-12-04T03:08:59;8.60;99.90
35559;DHT22;21661;50.794;-1.066;2023-12-04T03:11:25;8.60;99.90
35559;DHT22;21661;50.794;-1.066;2023-12-04T03:13:50;8.60;99.90
35559;DHT22;21661;50.794;-1.066;2023-12-04T03:16:17;8.60;99.90
35559;DHT22;21661;50.794;-1.066;2023-12-04T03:18:43;8.60;99.90
35559;DHT22;21661;50.794;-1.066;2023-12-04T03:21:09;8.50;99.90
35559;DHT22;21661;50.794;-1.066;2023-12-04T03:23:34;8.50;99.90
35559;DHT22;21661;50.794;-1.066;2023-12-04T03:26:00;8.60;99.90
35559;DHT22;21661;50.794;-1.066;2023-12-04T03:28:26;8.60;99.90
35559;DHT22;21661;50.794;-1.066;2023-12-04T03:30:51;8.70;99.90
35559;DHT22;21661;50.794;-1.066;2023-12-04T03:33:17;8.70;99.90
35559;DHT22;21661;50.794;-1.066;2023-12-04T03:35:43;8.60;99.90
35559;DHT22;21661;50.794;-1.066;2023-12-04T03:38:09;8.60;99.90
35559;DHT22;21661;50.794;-1.066;2023-12-04T03:40:35;8.60;99.90
35559;DHT22;21661;50.794;-1.066;2023-12-04T03:43:00;8.60;99.90
35559;DHT22;21661;50.794;-1.066;2023-12-04T03:45:26;8.60;99.90
35559;DHT22;21661;50.794;-1.066;2023-12-04T03:47:52;8.70;99.90
35559;DHT22;21661;50.794;-1.066;2023-12-04T03:50:17;8.70;99.90
35559;DHT22;21661;50.794;-1.066;2023-12-04T03:52:43;8.80;99.90
35559;DHT22;21661;50.794;-1.066;2023-12-04T03:55:09;8.80;99.90
35559;DHT22;21661;50.794;-1.066;2023-12-04T03:57:35;8.80;99.90
35559;DHT22;21661;50.794;-1.066;2023-12-04T04:00:01;8.80;99.90
35559;DHT22;21661;50.794;-1.066;2023-12-04T04:02:27;8.90;99.90
35559;DHT22;21661;50.794;-1.066;2023-12-04T04:04:53;8.90;99.90
35559;DHT22;21661;50.794;-1.066;2023-12-04T04:07:19;8.90;99.90
35559;DHT22;21661;50.794;-1.066;2023-12-04T04:09:45;8.90;99.90
35559;DHT22;21661;50.794;-1.066;2023-12-04T04:12:11;8.90;99.90
35559;DHT22;21661;50.794;-1.066;2023-12-04T04:14:37;9.00;99.90
35559;DHT22;21661;50.794;-1.066;2023-12-04T04:17:03;9.00;99.90
35559;DHT22;21661;50.794;-1.066;2023-12-04T04:19:29;9.10;99.90
35559;DHT22;21661;50.794;-1.066;2023-12-04T04:21:54;9.00;99.90
35559;DHT22;21661;50.794;-1.066;2023-12-04T04:24:20;9.10;99.90
35559;DHT22;21661;50.794;-1.066;2023-12-04T04:26:46;9.10;99.90
35559;DHT22;21661;50.794;-1.066;2023-12-04T04:29:12;9.10;99.90
35559;DHT22;21661;50.794;-1.066;2023-12-04T04:31:38;9.10;99.90
35559;DHT22;21661;50.794;-1.066;2023-12-04T04:34:03;9.10;99.90
35559;DHT22;21661;50.794;-1.066;2023-12-04T04:36:29;9.10;99.90
35559;DHT22;21661;50.794;-1.066;2023-12-04T04:38:55;9.20;99.90
35559;DHT22;21661;50.794;-1.066;2023-12-04T04:41:20;9.20;99.90
35559;DHT22;21661;50.794;-1.066;2023-12-04T04:43:46;9.10;99.90
35559;DHT22;21661;50.794;-1.066;2023-12-04T04:46:11;9.10;99.90
35559;DHT22;21661;50.794;-1.066;2023-12-04T04:48:37;9.10;99.90
35559;DHT22;21661;50.794;-1.066;2023-12-04T04:51:03;9.20;99.90
35559;DHT22;21661;50.794;-1.066;2023-12-04T04:53:29;9.10;99.90
35559;DHT22;21661;50.794;-1.066;2023-12-04T04:55:55;9.20;99.90
35559;DHT22;21661;50.794;-1.066;2023-12-04T04:58:20;9.20;99.90
35559;DHT22;21661;50.794;-1.066;2023-12-04T05:00:46;9.20;99.90
35559;DHT22;21661;50.794;-1.066;2023-12-04T05:03:15;9.20;99.90
35559;DHT22;21661;50.794;-1.066;2023-12-04T05:05:41;9.20;99.90
35559;DHT22;21661;50.794;-1.066;2023-12-04T05:08:06;9.30;99.90
35559;DHT22;21661;50.794;-1.066;2023-12-04T05:10:32;9.20;99.90
35559;DHT22;21661;50.794;-1.066;2023-12-04T05:12:58;9.30;99.90
35559;DHT22;21661;50.794;-1.066;2023-12-04T05:15:23;9.30;99.90
35559;DHT22;21661;50.794;-1.066;2023-12-04T05:17:49;9.30;99.90
35559;DHT22;21661;50.794;-1.066;2023-12-04T05:20:15;9.30;99.90
35559;DHT22;21661;50.794;-1.066;2023-12-04T05:22:40;9.30;99.90
35559;DHT22;21661;50.794;-1.066;2023-12-04T05:25:06;9.30;99.90
35559;DHT22;21661;50.794;-1.066;2023-12-04T05:27:34;9.30;99.90
35559;DHT22;21661;50.794;-1.066;2023-12-04T05:30:00;9.30;99.90
35559;DHT22;21661;50.794;-1.066;2023-12-04T05:32:25;9.30;99.90
35559;DHT22;21661;50.794;-1.066;2023-12-04T05:34:51;9.30;99.90
35559;DHT22;21661;50.794;-1.066;2023-12-04T05:37:17;9.30;99.90
35559;DHT22;21661;50.794;-1.066;2023-12-04T05:39:42;9.40;99.90
35559;DHT22;21661;50.794;-1.066;2023-12-04T05:42:08;9.40;99.90
35559;DHT22;21661;50.794;-1.066;2023-12-04T05:44:34;9.40;99.90
35559;DHT22;21661;50.794;-1.066;2023-12-04T05:47:00;9.40;99.90
35559;DHT22;21661;50.794;-1.066;2023-12-04T05:49:26;9.40;99.90
35559;DHT22;21661;50.794;-1.066;2023-12-04T05:51:51;9.40;99.90
35559;DHT22;21661;50.794;-1.066;2023-12-04T05:54:17;9.40;99.90
35559;DHT22;21661;50.794;-1.066;2023-12-04T05:56:43;9.40;99.90
35559;DHT22;21661;50.794;-1.066;2023-12-04T05:59:08;9.40;99.90
35559;DHT22;21661;50.794;-1.066;2023-12-04T06:01:34;9.50;99.90
35559;DHT22;21661;50.794;-1.066;2023-12-04T06:04:00;9.50;99.90
35559;DHT22;21661;50.794;-1.066;2023-12-04T06:06:26;9.50;99.90
35559;DHT22;21661;50.794;-1.066;2023-12-04T06:08:52;9.50;99.90
35559;DHT22;21661;50.794;-1.066;2023-12-04T06:11:18;9.50;99.90
35559;DHT22;21661;50.794;-1.066;2023-12-04T06:13:44;9.60;99.90
35559;DHT22;21661;50.794;-1.066;2023-12-04T06:16:09;9.50;99.90
35559;DHT22;21661;50.794;-1.066;2023-12-04T06:18:35;9.50;99.90
35559;DHT22;21661;50.794;-1.066;2023-12-04T06:21:01;9.60;99.90
35559;DHT22;21661;50.794;-1.066;2023-12-04T06:23:26;9.50;99.90
35559;DHT22;21661;50.794;-1.066;2023-12-04T06:25:52;9.50;99.90
35559;DHT22;21661;50.794;-1.066;2023-12-04T06:28:18;9.50;99.90
35559;DHT22;21661;50.794;-1.066;2023-12-04T06:30:44;9.50;99.90
35559;DHT22;21661;50.794;-1.066;2023-12-04T06:33:10;9.50;99.90
35559;DHT22;21661;50.794;-1.066;2023-12-04T06:35:36;9.60;99.90
35559;DHT22;21661;50.794;-1.066;2023-12-04T06:38:06;9.60;99.90
35559;DHT22;21661;50.794;-1.066;2023-12-04T06:40:32;9.60;99.90
35559;DHT22;21661;50.794;-1.066;2023-12-04T06:42:58;9.50;99.90
35559;DHT22;21661;50.794;-1.066;2023-12-04T06:45:24;9.50;99.90
35559;DHT22;21661;50.794;-1.066;2023-12-04T06:47:50;9.50;99.90
35559;DHT22;21661;50.794;-1.066;2023-12-04T06:50:16;9.50;99.90
35559;DHT22;21661;50.794;-1.066;2023-12-04T06:52:42;9.60;99.90
35559;DHT22;21661;50.794;-1.066;2023-12-04T06:55:08;9.60;99.90
35559;DHT22;21661;50.794;-1.066;2023-12-04T06:57:34;9.60;99.90
35559;DHT22;21661;50.794;-1.066;2023-12-04T07:00:00;9.60;99.90
35559;DHT22;21661;50.794;-1.066;2023-12-04T07:02:25;9.50;99.90
35559;DHT22;21661;50.794;-1.066;2023-12-04T07:04:51;9.60;99.90
35559;DHT22;21661;50.794;-1.066;2023-12-04T07:07:17;9.50;99.90
35559;DHT22;21661;50.794;-1.066;2023-12-04T07:09:42;9.60;99.90
35559;DHT22;21661;50.794;-1.066;2023-12-04T07:12:08;9.60;99.90
35559;DHT22;21661;50.794;-1.066;2023-12-04T07:14:33;9.60;99.90
35559;DHT22;21661;50.794;-1.066;2023-12-04T07:16:59;9.60;99.90
35559;DHT22;21661;50.794;-1.066;2023-12-04T07:19:25;9.60;99.90
35559;DHT22;21661;50.794;-1.066;2023-12-04T07:21:52;9.60;99.90
35559;DHT22;21661;50.794;-1.066;2023-12-04T07:24:18;9.60;99.90
35559;DHT22;21661;50.794;-1.066;2023-12-04T07:26:43;9.60;99.90
35559;DHT22;21661;50.794;-1.066;2023-12-04T07:29:09;9.60;99.90
35559;DHT22;21661;50.794;-1.066;2023-12-04T07:31:35;9.50;99.90
35559;DHT22;21661;50.794;-1.066;2023-12-04T07:34:01;9.50;99.90
35559;DHT22;21661;50.794;-1.066;2023-12-04T07:36:28;9.50;99.90
35559;DHT22;21661;50.794;-1.066;2023-12-04T07:38:53;9.60;99.90
35559;DHT22;21661;50.794;-1.066;2023-12-04T07:41:19;9.50;99.90
35559;DHT22;21661;50.794;-1.066;2023-12-04T07:43:45;9.50;99.90
35559;DHT22;21661;50.794;-1.066;2023-12-04T07:46:11;9.50;99.90
35559;DHT22;21661;50.794;-1.066;2023-12-04T07:48:37;9.50;99.90
35559;DHT22;21661;50.794;-1.066;2023-12-04T07:51:03;9.50;99.90
35559;DHT22;21661;50.794;-1.066;2023-12-04T07:53:29;9.50;99.90
35559;DHT22;21661;50.794;-1.066;2023-12-04T07:55:54;9.50;99.90
35559;DHT22;21661;50.794;-1.066;2023-12-04T07:58:20;9.50;99.90
35559;DHT22;21661;50.794;-1.066;2023-12-04T08:00:47;9.50;99.90
35559;DHT22;21661;50.794;-1.066;2023-12-04T08:03:13;9.50;99.90
35559;DHT22;21661;50.794;-1.066;2023-12-04T08:05:38;9.50;99.90
35559;DHT22;21661;50.794;-1.066;2023-12-04T08:08:04;9.50;99.90
35559;DHT22;21661;50.794;-1.066;2023-12-04T08:10:30;9.50;99.90
35559;DHT22;21661;50.794;-1.066;2023-12-04T08:12:57;9.50;99.90
35559;DHT22;21661;50.794;-1.066;2023-12-04T08:15:22;9.40;99.90
35559;DHT22;21661;50.794;-1.066;2023-12-04T08:17:48;9.50;99.90
35559;DHT22;21661;50.794;-1.066;2023-12-04T08:20:13;9.40;99.90
35559;DHT22;21661;50.794;-1.066;2023-12-04T08:22:40;9.40;99.90
35559;DHT22;21661;50.794;-1.066;2023-12-04T08:25:07;9.40;99.90
35559;DHT22;21661;50.794;-1.066;2023-12-04T08:27:33;9.40;99.90
35559;DHT22;21661;50.794;-1.066;2023-12-04T08:29:59;9.40;99.90
35559;DHT22;21661;50.794;-1.066;2023-12-04T08:32:25;9.50;99.90
35559;DHT22;21661;50.794;-1.066;2023-12-04T08:34:53;9.50;99.90
35559;DHT22;21661;50.794;-1.066;2023-12-04T08:37:19;9.40;99.90
35559;DHT22;21661;50.794;-1.066;2023-12-04T08:39:45;9.40;99.90
35559;DHT22;21661;50.794;-1.066;2023-12-04T08:42:11;9.40;99.90
35559;DHT22;21661;50.794;-1.066;2023-12-04T08:44:37;9.40;99.90
35559;DHT22;21661;50.794;-1.066;2023-12-04T08:47:03;9.40;99.90
35559;DHT22;21661;50.794;-1.066;2023-12-04T08:49:29;9.40;99.90
35559;DHT22;21661;50.794;-1.066;2023-12-04T08:51:54;9.40;99.90
35559;DHT22;21661;50.794;-1.066;2023-12-04T08:54:20;9.40;99.90
35559;DHT22;21661;50.794;-1.066;2023-12-04T08:56:46;9.30;99.90
35559;DHT22;21661;50.794;-1.066;2023-12-04T08:59:12;9.40;99.90
35559;DHT22;21661;50.794;-1.066;2023-12-04T09:01:42;9.40;99.90
35559;DHT22;21661;50.794;-1.066;2023-12-04T09:04:09;9.40;99.90
35559;DHT22;21661;50.794;-1.066;2023-12-04T09:06:35;9.40;99.90
35559;DHT22;21661;50.794;-1.066;2023-12-04T09:09:01;9.40;99.90
35559;DHT22;21661;50.794;-1.066;2023-12-04T09:11:27;9.40;99.90
35559;DHT22;21661;50.794;-1.066;2023-12-04T09:13:53;9.40;99.90
35559;DHT22;21661;50.794;-1.066;2023-12-04T09:16:19;9.40;99.90
35559;DHT22;21661;50.794;-1.066;2023-12-04T09:18:45;9.40;99.90
35559;DHT22;21661;50.794;-1.066;2023-12-04T09:21:11;9.50;99.90
35559;DHT22;21661;50.794;-1.066;2023-12-04T09:23:37;9.50;99.90
35559;DHT22;21661;50.794;-1.066;2023-12-04T09:26:03;9.50;99.90
35559;DHT22;21661;50.794;-1.066;2023-12-04T09:28:28;9.50;99.90
35559;DHT22;21661;50.794;-1.066;2023-12-04T09:30:54;9.60;99.90
35559;DHT22;21661;50.794;-1.066;2023-12-04T09:33:20;9.50;99.90
35559;DHT22;21661;50.794;-1.066;2023-12-04T09:35:45;9.50;99.90
35559;DHT22;21661;50.794;-1.066;2023-12-04T09:38:11;9.50;99.90
35559;DHT22;21661;50.794;-1.066;2023-12-04T09:40:37;9.50;99.90
35559;DHT22;21661;50.794;-1.066;2023-12-04T09:43:03;9.50;99.90
35559;DHT22;21661;50.794;-1.066;2023-12-04T09:45:29;9.40;99.90
35559;DHT22;21661;50.794;-1.066;2023-12-04T09:47:57;9.40;99.90
35559;DHT22;21661;50.794;-1.066;2023-12-04T09:50:23;9.40;99.90
35559;DHT22;21661;50.794;-1.066;2023-12-04T09:52:50;9.50;99.90
35559;DHT22;21661;50.794;-1.066;2023-12-04T09:55:16;9.50;99.90
35559;DHT22;21661;50.794;-1.066;2023-12-04T09:57:44;9.50;99.90
35559;DHT22;21661;50.794;-1.066;2023-12-04T10:00:12;9.50;99.90
35559;DHT22;21661;50.794;-1.066;2023-12-04T10:02:39;9.50;99.90
35559;DHT22;21661;50.794;-1.066;2023-12-04T10:05:06;9.50;99.90
35559;DHT22;21661;50.794;-1.066;2023-12-04T10:07:32;9.50;99.90
35559;DHT22;21661;50.794;-1.066;2023-12-04T10:09:57;9.50;99.90
35559;DHT22;21661;50.794;-1.066;2023-12-04T10:12:23;9.60;99.90
35559;DHT22;21661;50.794;-1.066;2023-12-04T10:15:10;9.60;99.90
35559;DHT22;21661;50.794;-1.066;2023-12-04T10:17:37;9.60;99.90
35559;DHT22;21661;50.794;-1.066;2023-12-04T10:20:14;9.60;99.90
35559;DHT22;21661;50.794;-1.066;2023-12-04T10:22:56;9.70;99.90
35559;DHT22;21661;50.794;-1.066;2023-12-04T10:25:24;9.70;99.90
35559;DHT22;21661;50.794;-1.066;2023-12-04T10:27:54;9.70;99.90
35559;DHT22;21661;50.794;-1.066;2023-12-04T10:32:48;9.70;99.90
35559;DHT22;21661;50.794;-1.066;2023-12-04T10:35:14;9.80;99.90
35559;DHT22;21661;50.794;-1.066;2023-12-04T10:37:40;9.80;99.90
35559;DHT22;21661;50.794;-1.066;2023-12-04T10:40:06;9.70;99.90
35559;DHT22;21661;50.794;-1.066;2023-12-04T10:42:35;9.80;99.90
35559;DHT22;21661;50.794;-1.066;2023-12-04T10:45:01;9.80;99.90
35559;DHT22;21661;50.794;-1.066;2023-12-04T10:47:29;9.80;99.90
35559;DHT22;21661;50.794;-1.066;2023-12-04T10:49:56;9.80;99.90
35559;DHT22;21661;50.794;-1.066;2023-12-04T10:52:22;9.80;99.90
35559;DHT22;21661;50.794;-1.066;2023-12-04T10:54:48;9.80;99.90
35559;DHT22;21661;50.794;-1.066;2023-12-04T10:57:27;9.80;99.90
35559;DHT22;21661;50.794;-1.066;2023-12-04T10:59:58;9.80;99.90
35559;DHT22;21661;50.794;-1.066;2023-12-04T11:02:26;9.80;99.90
35559;DHT22;21661;50.794;-1.066;2023-12-04T11:04:58;9.80;99.90
35559;DHT22;21661;50.794;-1.066;2023-12-04T11:07:25;9.80;99.90
35559;DHT22;21661;50.794;-1.066;2023-12-04T11:09:54;9.80;99.90
35559;DHT22;21661;50.794;-1.066;2023-12-04T11:12:23;9.80;99.90
35559;DHT22;21661;50.794;-1.066;2023-12-04T11:14:56;9.80;99.90
35559;DHT22;21661;50.794;-1.066;2023-12-04T11:17:24;9.80;99.90
35559;DHT22;21661;50.794;-1.066;2023-12-04T11:20:08;9.90;99.90
35559;DHT22;21661;50.794;-1.066;2023-12-04T11:22:37;9.90;99.90
35559;DHT22;21661;50.794;-1.066;2023-12-04T11:25:06;9.90;99.90
35559;DHT22;21661;50.794;-1.066;2023-12-04T11:27:34;9.90;99.90
35559;DHT22;21661;50.794;-1.066;2023-12-04T11:30:00;9.90;99.90
35559;DHT22;21661;50.794;-1.066;2023-12-04T11:32:28;9.90;99.90
35559;DHT22;21661;50.794;-1.066;2023-12-04T11:34:56;9.90;99.90
35559;DHT22;21661;50.794;-1.066;2023-12-04T11:37:25;9.90;99.90
35559;DHT22;21661;50.794;-1.066;2023-12-04T11:39:51;9.90;99.90
35559;DHT22;21661;50.794;-1.066;2023-12-04T11:42:22;9.90;99.90
35559;DHT22;21661;50.794;-1.066;2023-12-04T11:44:49;9.90;99.90
35559;DHT22;21661;50.794;-1.066;2023-12-04T11:47:15;9.90;99.90
35559;DHT22;21661;50.794;-1.066;2023-12-04T11:49:41;9.90;99.90
35559;DHT22;21661;50.794;-1.066;2023-12-04T11:52:07;9.90;99.90
35559;DHT22;21661;50.794;-1.066;2023-12-04T11:55:03;9.90;99.90
35559;DHT22;21661;50.794;-1.066;2023-12-04T11:57:35;9.90;99.90
35559;DHT22;21661;50.794;-1.066;2023-12-04T12:02:33;10.10;99.90
35559;DHT22;21661;50.794;-1.066;2023-12-04T12:04:59;10.10;99.90
35559;DHT22;21661;50.794;-1.066;2023-12-04T12:07:25;10.10;99.90
35559;DHT22;21661;50.794;-1.066;2023-12-04T12:09:50;10.10;99.90
35559;DHT22;21661;50.794;-1.066;2023-12-04T12:12:16;10.10;99.90
35559;DHT22;21661;50.794;-1.066;2023-12-04T12:14:42;10.10;99.90
35559;DHT22;21661;50.794;-1.066;2023-12-04T12:17:08;10.10;99.90
35559;DHT22;21661;50.794;-1.066;2023-12-04T12:19:34;10.10;99.90
35559;DHT22;21661;50.794;-1.066;2023-12-04T12:22:00;10.00;99.90
35559;DHT22;21661;50.794;-1.066;2023-12-04T12:24:25;10.00;99.90
35559;DHT22;21661;50.794;-1.066;2023-12-04T12:26:51;10.00;99.90
35559;DHT22;21661;50.794;-1.066;2023-12-04T12:29:17;10.00;99.90
35559;DHT22;21661;50.794;-1.066;2023-12-04T12:31:43;10.00;99.90
35559;DHT22;21661;50.794;-1.066;2023-12-04T12:34:09;10.10;99.90
35559;DHT22;21661;50.794;-1.066;2023-12-04T12:36:34;10.10;99.90
35559;DHT22;21661;50.794;-1.066;2023-12-04T12:39:01;10.10;99.90
35559;DHT22;21661;50.794;-1.066;2023-12-04T12:41:29;10.20;99.90
35559;DHT22;21661;50.794;-1.066;2023-12-04T12:43:55;10.20;99.90
35559;DHT22;21661;50.794;-1.066;2023-12-04T12:46:22;10.20;99.90
35559;DHT22;21661;50.794;-1.066;2023-12-04T12:48:48;10.20;99.90
35559;DHT22;21661;50.794;-1.066;2023-12-04T12:51:13;10.20;99.90
35559;DHT22;21661;50.794;-1.066;2023-12-04T12:53:40;10.20;99.90
35559;DHT22;21661;50.794;-1.066;2023-12-04T12:56:06;10.20;99.90
35559;DHT22;21661;50.794;-1.066;2023-12-04T12:58:33;10.30;99.90
35559;DHT22;21661;50.794;-1.066;2023-12-04T13:00:59;10.30;99.90
35559;DHT22;21661;50.794;-1.066;2023-12-04T13:03:25;10.30;99.90
35559;DHT22;21661;50.794;-1.066;2023-12-04T13:05:51;10.40;99.90
35559;DHT22;21661;50.794;-1.066;2023-12-04T13:08:16;10.40;99.90
35559;DHT22;21661;50.794;-1.066;2023-12-04T13:10:42;10.40;99.90
35559;DHT22;21661;50.794;-1.066;2023-12-04T13:13:14;10.40;99.90
35559;DHT22;21661;50.794;-1.066;2023-12-04T13:15:41;10.40;99.90
35559;DHT22;21661;50.794;-1.066;2023-12-04T13:18:07;10.40;99.90
35559;DHT22;21661;50.794;-1.066;2023-12-04T13:20:33;10.40;99.90
35559;DHT22;21661;50.794;-1.066;2023-12-04T13:23:00;10.40;99.90
35559;DHT22;21661;50.794;-1.066;2023-12-04T13:25:25;10.40;99.90
35559;DHT22;21661;50.794;-1.066;2023-12-04T13:27:51;10.40;99.90
35559;DHT22;21661;50.794;-1.066;2023-12-04T13:30:17;10.40;99.90
35559;DHT22;21661;50.794;-1.066;2023-12-04T13:32:42;10.50;99.90
35559;DHT22;21661;50.794;-1.066;2023-12-04T13:35:08;10.50;99.90
35559;DHT22;21661;50.794;-1.066;2023-12-04T13:37:34;10.50;99.90
35559;DHT22;21661;50.794;-1.066;2023-12-04T13:40:02;10.40;99.90
35559;DHT22;21661;50.794;-1.066;2023-12-04T13:42:32;10.40;99.90
35559;DHT22;21661;50.794;-1.066;2023-12-04T13:45:17;10.40;99.90
35559;DHT22;21661;50.794;-1.066;2023-12-04T13:47:42;10.40;99.90
35559;DHT22;21661;50.794;-1.066;2023-12-04T13:50:09;10.30;99.90
35559;DHT22;21661;50.794;-1.066;2023-12-04T13:52:35;10.30;99.90
35559;DHT22;21661;50.794;-1.066;2023-12-04T13:55:01;10.30;99.90
35559;DHT22;21661;50.794;-1.066;2023-12-04T13:57:34;10.30;99.90
35559;DHT22;21661;50.794;-1.066;2023-12-04T14:00:09;10.30;99.90
35559;DHT22;21661;50.794;-1.066;2023-12-04T14:02:35;10.30;99.90
35559;DHT22;21661;50.794;-1.066;2023-12-04T14:05:03;10.30;99.90
35559;DHT22;21661;50.794;-1.066;2023-12-04T14:07:28;10.30;99.90
35559;DHT22;21661;50.794;-1.066;2023-12-04T14:09:54;10.30;99.90
35559;DHT22;21661;50.794;-1.066;2023-12-04T14:12:20;10.40;99.90
35559;DHT22;21661;50.794;-1.066;2023-12-04T14:14:45;10.40;99.90
35559;DHT22;21661;50.794;-1.066;2023-12-04T14:17:12;10.30;99.90
35559;DHT22;21661;50.794;-1.066;2023-12-04T14:19:38;10.30;99.90
35559;DHT22;21661;50.794;-1.066;2023-12-04T14:22:05;10.30;99.90
35559;DHT22;21661;50.794;-1.066;2023-12-04T14:24:31;10.20;99.90
35559;DHT22;21661;50.794;-1.066;2023-12-04T14:26:56;10.10;99.90
35559;DHT22;21661;50.794;-1.066;2023-12-04T14:29:22;10.00;99.90
35559;DHT22;21661;50.794;-1.066;2023-12-04T14:31:48;10.00;99.90
35559;DHT22;21661;50.794;-1.066;2023-12-04T14:34:13;10.00;99.90
35559;DHT22;21661;50.794;-1.066;2023-12-04T14:36:39;10.00;99.90
35559;DHT22;21661;50.794;-1.066;2023-12-04T14:39:06;9.90;99.90
35559;DHT22;21661;50.794;-1.066;2023-12-04T14:41:32;9.90;99.90
35559;DHT22;21661;50.794;-1.066;2023-12-04T14:43:57;9.90;99.90
35559;DHT22;21661;50.794;-1.066;2023-12-04T14:46:23;9.80;99.90
35559;DHT22;21661;50.794;-1.066;2023-12-04T14:48:49;9.80;99.90
35559;DHT22;21661;50.794;-1.066;2023-12-04T14:51:15;9.80;99.90
35559;DHT22;21661;50.794;-1.066;2023-12-04T14:53:41;9.70;99.90
35559;DHT22;21661;50.794;-1.066;2023-12-04T14:56:16;9.70;99.90
35559;DHT22;21661;50.794;-1.066;2023-12-04T14:59:00;9.70;99.90
35559;DHT22;21661;50.794;-1.066;2023-12-04T15:01:45;9.70;99.90
35559;DHT22;21661;50.794;-1.066;2023-12-04T15:04:14;9.70;99.90
35559;DHT22;21661;50.794;-1.066;2023-12-04T15:07:00;9.70;99.90
35559;DHT22;21661;50.794;-1.066;2023-12-04T15:09:44;9.60;99.90
35559;DHT22;21661;50.794;-1.066;2023-12-04T15:12:15;9.60;99.90
35559;DHT22;21661;50.794;-1.066;2023-12-04T15:14:51;9.60;99.90
35559;DHT22;21661;50.794;-1.066;2023-12-04T15:17:46;9.60;99.90
35559;DHT22;21661;50.794;-1.066;2023-12-04T15:20:21;9.60;99.90
35559;DHT22;21661;50.794;-1.066;2023-12-04T15:22:53;9.60;99.90
35559;DHT22;21661;50.794;-1.066;2023-12-04T15:25:18;9.50;99.90
35559;DHT22;21661;50.794;-1.066;2023-12-04T15:27:46;9.50;99.90
35559;DHT22;21661;50.794;-1.066;2023-12-04T15:30:11;9.50;99.90